Mudanjiang, China
Current Conditions -  °F | °C
As of 3:30 PM on Friday 24 Oct 2014 (Local Time) from UHWW Reporting Station
Broken Clouds Broken Clouds  
Wind Chill: 57°   Ceiling: 20000
Heat Index: 57°   Visibility: 6mi
Dew Point: 50°   Wind: 9mph
Humidity: 77%   Direction: 210°SSW
Pressure: 29.91"   Gusts: NA
Location:  44.58°N, 129.6°E
Report Text: UHWW 240730Z 21004MPS 9999 BKN200 14/10 Q1013 NOSIG RMKQFE758/1011 25CLRD70
Loading
Personal Weather Stations






























Interactive Weather Map
Tropical Storm Tracking
New forecast layout! Learn more

10-Day Weather Forecast

Advertisements
Track Severe Weather on mobile